Time;durP1;ratioP1;P1;durP2;ratioP2;P2;SDS_P1;SDS_P2;PMS_P1;PMS_P2;Temp;Humidity;BMP_temperature;BMP_pressure;BME280_temperature;BME280_humidity;BME280_pressure;Samples;Min_cycle;Max_cycle;Signal;HPM_P1;HPM_P2
2022/07/25 00:00:04;;;;;;;8.27;6.68;;;21.80;99.90;;;;;;5073562;28;20649;-60
2022/07/25 00:02:31;;;;;;;9.35;6.85;;;21.90;99.90;;;;;;5073820;28;20213;-61
2022/07/25 00:04:58;;;;;;;7.30;6.68;;;21.90;99.90;;;;;;5073595;28;20228;-60
2022/07/25 00:07:24;;;;;;;8.07;7.28;;;22.00;99.90;;;;;;5073291;28;20200;-61
2022/07/25 00:09:51;;;;;;;8.55;7.30;;;22.10;99.90;;;;;;5073733;28;20209;-61
2022/07/25 00:12:18;;;;;;;7.30;6.60;;;22.10;99.90;;;;;;5073656;28;20205;-61
2022/07/25 00:14:45;;;;;;;7.65;6.85;;;22.20;99.90;;;;;;5073416;28;20229;-61
2022/07/25 00:17:13;;;;;;;7.00;6.30;;;22.10;99.90;;;;;;5073152;28;20204;-61
2022/07/25 00:19:39;;;;;;;7.47;6.78;;;22.10;99.90;;;;;;5073222;28;20220;-61
2022/07/25 00:22:07;;;;;;;6.78;6.13;;;22.20;99.90;;;;;;5073449;28;20282;-60
2022/07/25 00:24:34;;;;;;;8.70;6.50;;;22.20;99.90;;;;;;5073482;28;20236;-61
2022/07/25 00:27:01;;;;;;;7.93;7.13;;;22.20;99.90;;;;;;5073034;28;20250;-61
2022/07/25 00:29:28;;;;;;;9.77;6.72;;;22.20;99.90;;;;;;5073289;28;20200;-61
2022/07/25 00:31:54;;;;;;;6.97;6.28;;;22.20;99.90;;;;;;5073157;28;20205;-60
2022/07/25 00:34:22;;;;;;;7.32;6.63;;;22.10;99.90;;;;;;5072970;28;20648;-61
2022/07/25 00:36:49;;;;;;;8.57;6.25;;;22.10;99.90;;;;;;5072680;28;20212;-61
2022/07/25 00:39:16;;;;;;;7.75;6.45;;;22.10;99.90;;;;;;5073069;28;20204;-61
2022/07/25 00:41:43;;;;;;;6.65;6.05;;;22.20;99.90;;;;;;5072750;28;20573;-60
2022/07/25 00:44:10;;;;;;;7.30;6.60;;;22.10;99.90;;;;;;5072886;28;20229;-61
2022/07/25 00:46:38;;;;;;;8.23;6.90;;;22.10;99.90;;;;;;5072249;28;20258;-61
2022/07/25 00:49:05;;;;;;;7.50;6.80;;;22.00;99.90;;;;;;5072451;28;20287;-61
2022/07/25 00:51:33;;;;;;;6.60;5.97;;;22.00;99.90;;;;;;5072746;28;20213;-61
2022/07/25 00:54:01;;;;;;;6.95;6.25;;;22.10;99.90;;;;;;5072600;28;20205;-61
2022/07/25 00:56:27;;;;;;;8.20;6.57;;;22.20;99.90;;;;;;5072522;28;20201;-61
2022/07/25 00:58:54;;;;;;;7.28;6.57;;;22.30;99.90;;;;;;5072639;28;20256;-62
2022/07/25 01:01:21;;;;;;;8.32;7.03;;;22.30;99.90;;;;;;5072377;28;20229;-59
2022/07/25 01:03:48;;;;;;;8.13;6.63;;;22.30;99.90;;;;;;5072663;28;20212;-61
2022/07/25 01:06:14;;;;;;;7.90;7.20;;;22.30;99.90;;;;;;5072321;28;20204;-61
2022/07/25 01:08:43;;;;;;;8.13;7.28;;;22.30;99.90;;;;;;5072544;28;20216;-59
2022/07/25 01:11:10;;;;;;;8.43;7.63;;;22.40;99.90;;;;;;5072375;28;20204;-60
2022/07/25 01:13:36;;;;;;;7.75;7.05;;;22.40;99.90;;;;;;5072324;28;20636;-61
2022/07/25 01:16:03;;;;;;;9.52;7.72;;;22.40;99.90;;;;;;5071825;28;20232;-61
2022/07/25 01:18:30;;;;;;;8.63;7.72;;;22.40;99.90;;;;;;5072426;28;20205;-60
2022/07/25 01:20:58;;;;;;;8.60;6.90;;;22.40;99.90;;;;;;5072096;28;20707;-60
2022/07/25 01:23:25;;;;;;;7.78;6.63;;;22.30;99.90;;;;;;5072269;28;20204;-61
2022/07/25 01:25:51;;;;;;;8.65;6.72;;;22.30;99.90;;;;;;5071783;28;20233;-61
2022/07/25 01:28:18;;;;;;;7.63;6.82;;;22.30;99.90;;;;;;5072069;28;20208;-61
2022/07/25 01:30:45;;;;;;;8.13;6.53;;;22.30;99.90;;;;;;5071942;28;20734;-61
2022/07/25 01:33:15;;;;;;;7.07;6.45;;;22.20;99.90;;;;;;5072187;28;20262;-61
2022/07/25 01:35:42;;;;;;;7.35;6.65;;;22.30;99.90;;;;;;5071650;28;20327;-59
2022/07/25 01:38:10;;;;;;;7.30;6.30;;;22.30;99.90;;;;;;5071988;28;20228;-61
2022/07/25 01:40:37;;;;;;;6.85;6.15;;;22.30;99.90;;;;;;5071984;28;20263;-61
2022/07/25 01:43:03;;;;;;;7.10;6.32;;;22.20;99.90;;;;;;5071901;28;20208;-61
2022/07/25 01:45:30;;;;;;;8.20;6.75;;;22.20;99.90;;;;;;5071685;28;20232;-59
2022/07/25 01:47:57;;;;;;;7.50;6.80;;;22.20;99.90;;;;;;5071755;28;20258;-61
2022/07/25 01:50:24;;;;;;;8.95;6.70;;;22.30;99.90;;;;;;5071944;28;20209;-61
2022/07/25 01:52:51;;;;;;;7.38;6.60;;;22.30;99.90;;;;;;5071812;28;20216;-60
2022/07/25 01:55:19;;;;;;;8.35;6.70;;;22.00;99.90;;;;;;5071426;28;20282;-61
2022/07/25 01:57:46;;;;;;;8.88;6.85;;;21.90;99.90;;;;;;5071272;28;20258;-61
2022/07/25 02:00:14;;;;;;;7.00;6.30;;;21.80;99.90;;;;;;5071584;28;20724;-61
2022/07/25 02:02:43;;;;;;;9.25;6.28;;;21.80;99.90;;;;;;5071955;28;20205;-61
2022/07/25 02:05:13;;;;;;;7.38;6.68;;;21.80;99.90;;;;;;5071644;28;20221;-61
2022/07/25 02:07:39;;;;;;;8.40;6.55;;;21.70;99.90;;;;;;5071237;28;20633;-61
2022/07/25 02:10:07;;;;;;;9.45;6.18;;;21.80;99.90;;;;;;5071572;28;20255;-61
2022/07/25 02:12:35;;;;;;;6.60;6.00;;;21.70;99.90;;;;;;5071897;28;20258;-61
2022/07/25 02:15:02;;;;;;;8.15;6.40;;;21.60;99.90;;;;;;5071468;28;20631;-61
2022/07/25 02:17:28;;;;;;;7.30;6.25;;;21.60;99.90;;;;;;5071445;28;20212;-61
2022/07/25 02:19:55;;;;;;;6.40;5.80;;;21.60;99.90;;;;;;5071527;28;20290;-60
2022/07/25 02:22:22;;;;;;;7.50;6.35;;;21.60;99.90;;;;;;5071514;28;20205;-61
2022/07/25 02:24:48;;;;;;;8.18;6.78;;;21.60;99.90;;;;;;5071271;28;20608;-61
2022/07/25 02:27:15;;;;;;;7.15;6.45;;;21.70;99.90;;;;;;5071399;28;20205;-61
2022/07/25 02:29:43;;;;;;;6.95;6.25;;;21.70;99.90;;;;;;5071341;28;20623;-61
2022/07/25 02:32:10;;;;;;;7.05;6.40;;;21.70;99.90;;;;;;5071453;28;20631;-60
2022/07/25 02:34:36;;;;;;;7.90;6.82;;;21.70;99.90;;;;;;5071238;28;20660;-61
2022/07/25 02:37:03;;;;;;;8.25;7.00;;;21.70;99.90;;;;;;5070980;28;20730;-61
2022/07/25 02:39:30;;;;;;;7.75;6.25;;;21.80;99.90;;;;;;5071158;28;20209;-61
2022/07/25 02:41:56;;;;;;;7.75;6.57;;;21.90;99.90;;;;;;5071420;28;20224;-60
2022/07/25 02:44:23;;;;;;;7.80;7.10;;;21.80;99.90;;;;;;5071398;28;20286;-61
2022/07/25 02:46:51;;;;;;;7.05;6.28;;;22.00;99.90;;;;;;5071191;28;20212;-60
2022/07/25 02:49:18;;;;;;;7.47;6.60;;;22.00;99.90;;;;;;5071203;28;20213;-61
2022/07/25 02:51:44;;;;;;;7.57;6.88;;;21.90;99.90;;;;;;5071026;28;20668;-61
2022/07/25 02:54:11;;;;;;;7.72;6.80;;;21.80;99.90;;;;;;5070848;28;20232;-61
2022/07/25 02:56:38;;;;;;;7.40;6.75;;;21.80;99.90;;;;;;5071124;28;20220;-61
2022/07/25 02:59:04;;;;;;;6.75;6.07;;;21.80;99.90;;;;;;5071057;28;20250;-61
2022/07/25 03:01:31;;;;;;;7.35;6.65;;;21.90;99.90;;;;;;5071126;28;20237;-61
2022/07/25 03:03:59;;;;;;;8.27;6.65;;;21.80;99.90;;;;;;5071004;28;20582;-61
2022/07/25 03:06:26;;;;;;;7.68;6.88;;;21.80;99.90;;;;;;5070736;28;20213;-61
2022/07/25 03:08:52;;;;;;;8.25;6.35;;;21.80;99.90;;;;;;5071113;28;20216;-61
2022/07/25 03:11:19;;;;;;;7.45;6.75;;;21.80;99.90;;;;;;5073435;28;20230;-60
2022/07/25 03:13:46;;;;;;;8.90;7.40;;;21.80;99.90;;;;;;5074682;28;20208;-61
2022/07/25 03:16:12;;;;;;;7.63;6.80;;;21.70;99.90;;;;;;5074396;28;20475;-60
2022/07/25 03:18:39;;;;;;;9.20;7.18;;;21.70;99.90;;;;;;5074383;28;20201;-60
2022/07/25 03:21:07;;;;;;;8.02;7.22;;;21.80;99.90;;;;;;5074230;28;20266;-61
2022/07/25 03:23:34;;;;;;;9.15;6.85;;;21.90;99.90;;;;;;5074626;28;20209;-61
2022/07/25 03:26:01;;;;;;;13.02;8.88;;;21.90;99.90;;;;;;5074208;28;20221;-60
2022/07/25 03:28:27;;;;;;;9.85;8.85;;;22.00;99.90;;;;;;5074402;28;20201;-61
2022/07/25 03:30:54;;;;;;;9.38;7.55;;;22.00;99.90;;;;;;5074784;28;20578;-61
2022/07/25 03:33:21;;;;;;;7.75;6.85;;;22.00;99.90;;;;;;5074206;28;20213;-59
2022/07/25 03:35:48;;;;;;;8.50;7.70;;;22.00;99.90;;;;;;5073778;28;20267;-61
2022/07/25 03:38:16;;;;;;;8.77;7.97;;;22.00;99.90;;;;;;5074259;28;20209;-61
2022/07/25 03:40:42;;;;;;;10.45;7.13;;;22.10;99.90;;;;;;5074152;28;20217;-60
2022/07/25 03:43:09;;;;;;;7.80;7.00;;;22.10;99.90;;;;;;5074482;28;20334;-60
2022/07/25 03:45:36;;;;;;;8.20;7.22;;;22.20;99.90;;;;;;5073863;28;20773;-61
2022/07/25 03:48:03;;;;;;;8.27;7.18;;;22.10;99.90;;;;;;5073656;28;20205;-61
2022/07/25 03:50:29;;;;;;;8.93;6.82;;;22.00;99.90;;;;;;5074225;28;20205;-61
2022/07/25 03:52:56;;;;;;;7.38;6.32;;;21.90;99.90;;;;;;5074004;28;20254;-61
2022/07/25 03:55:24;;;;;;;7.03;6.43;;;21.70;99.90;;;;;;5074224;28;20233;-59
2022/07/25 03:57:51;;;;;;;7.30;6.70;;;21.60;99.90;;;;;;5073833;28;20204;-59
2022/07/25 04:00:17;;;;;;;9.50;6.90;;;21.50;99.90;;;;;;5073635;28;20205;-61
2022/07/25 04:02:44;;;;;;;12.75;6.82;;;21.40;99.90;;;;;;5073650;28;20251;-59
2022/07/25 04:05:11;;;;;;;7.75;7.03;;;21.40;99.90;;;;;;5073785;28;20225;-59
2022/07/25 04:07:38;;;;;;;7.70;6.97;;;21.40;99.90;;;;;;5073317;28;20201;-58
2022/07/25 04:10:05;;;;;;;7.65;6.90;;;21.30;99.90;;;;;;5073593;28;20649;-63
2022/07/25 04:12:33;;;;;;;7.93;7.22;;;21.30;99.90;;;;;;5073354;28;20205;-60
2022/07/25 04:15:00;;;;;;;8.27;6.90;;;21.40;99.90;;;;;;5073368;28;20270;-60
2022/07/25 04:17:26;;;;;;;7.47;6.70;;;21.50;99.90;;;;;;5073053;28;20208;-59
2022/07/25 04:19:53;;;;;;;7.40;6.60;;;21.60;99.90;;;;;;5073743;28;20709;-59
2022/07/25 04:22:21;;;;;;;9.60;7.18;;;21.70;99.90;;;;;;5072256;28;20236;-59
2022/07/25 04:24:47;;;;;;;12.43;9.23;;;21.90;99.90;;;;;;5073310;28;20225;-59
2022/07/25 04:27:14;;;;;;;8.00;7.20;;;22.10;99.90;;;;;;5073038;28;20213;-60
2022/07/25 04:29:42;;;;;;;8.82;7.47;;;22.20;99.90;;;;;;5073105;28;20738;-60
2022/07/25 04:32:09;;;;;;;7.68;6.90;;;22.20;99.90;;;;;;5073287;28;20225;-60
2022/07/25 04:34:35;;;;;;;9.45;7.95;;;22.30;99.90;;;;;;5073134;28;20248;-60
2022/07/25 04:37:02;;;;;;;7.65;6.85;;;22.40;99.90;;;;;;5073063;28;20209;-60
2022/07/25 04:39:29;;;;;;;11.32;7.45;;;22.50;99.90;;;;;;5072868;28;20588;-60
2022/07/25 04:41:55;;;;;;;8.15;6.15;;;22.60;99.90;;;;;;5072761;28;20584;-60
2022/07/25 04:44:23;;;;;;;9.20;7.55;;;22.60;99.90;;;;;;5072562;28;20237;-59
2022/07/25 04:46:51;;;;;;;8.50;6.88;;;22.80;99.90;;;;;;5072653;28;20213;-59
2022/07/25 04:49:19;;;;;;;8.60;7.45;;;22.90;99.90;;;;;;5072796;28;20213;-59
2022/07/25 04:51:45;;;;;;;8.50;7.22;;;22.90;99.90;;;;;;5072923;28;20643;-59
2022/07/25 04:54:12;;;;;;;9.70;6.85;;;23.00;99.90;;;;;;5072338;28;20659;-59
2022/07/25 04:56:38;;;;;;;10.68;7.40;;;23.00;99.90;;;;;;5072292;28;20730;-59
2022/07/25 04:59:05;;;;;;;11.02;7.63;;;23.00;99.90;;;;;;5072124;28;20681;-59
2022/07/25 05:01:32;;;;;;;10.85;7.72;;;23.10;99.90;;;;;;5072410;28;20301;-59
2022/07/25 05:04:00;;;;;;;8.50;7.60;;;23.20;99.90;;;;;;5072533;28;20231;-59
2022/07/25 05:06:26;;;;;;;10.00;7.88;;;23.30;99.90;;;;;;5072055;28;20285;-59
2022/07/25 05:08:54;;;;;;;13.63;10.98;;;23.30;99.90;;;;;;5072268;28;20200;-60
2022/07/25 05:11:20;;;;;;;8.60;7.70;;;23.40;99.90;;;;;;5072326;28;20208;-59
2022/07/25 05:13:47;;;;;;;7.75;6.97;;;23.40;99.90;;;;;;5072373;28;20220;-59
2022/07/25 05:16:14;;;;;;;8.25;7.30;;;23.50;99.90;;;;;;5071852;28;20734;-60
2022/07/25 05:18:40;;;;;;;9.57;7.55;;;23.50;99.90;;;;;;5072623;28;20211;-59
2022/07/25 05:21:11;;;;;;;8.32;6.95;;;23.60;99.90;;;;;;5072224;28;20378;-59
2022/07/25 05:23:38;;;;;;;8.45;7.13;;;23.70;99.90;;;;;;5072133;28;20262;-59
2022/07/25 05:26:05;;;;;;;9.13;6.68;;;23.80;99.90;;;;;;5071409;28;20278;-59
2022/07/25 05:28:31;;;;;;;11.18;8.00;;;23.80;99.90;;;;;;5071381;28;20622;-60
2022/07/25 05:30:58;;;;;;;10.10;7.70;;;24.00;99.90;;;;;;5071940;28;20210;-59
2022/07/25 05:33:25;;;;;;;10.85;7.47;;;24.10;99.90;;;;;;5071728;28;20217;-59
2022/07/25 05:35:52;;;;;;;10.27;7.57;;;24.30;99.90;;;;;;5071717;28;20680;-62
2022/07/25 05:38:20;;;;;;;10.18;7.43;;;25.10;99.90;;;;;;5071861;28;20205;-60
2022/07/25 05:40:47;;;;;;;10.35;7.63;;;26.80;99.90;;;;;;5071584;28;20209;-59
2022/07/25 05:43:13;;;;;;;7.57;6.88;;;28.70;99.90;;;;;;5071539;28;20231;-59
2022/07/25 05:45:40;;;;;;;10.35;7.38;;;30.50;99.90;;;;;;5071783;28;20224;-61
2022/07/25 05:48:07;;;;;;;7.10;6.40;;;32.20;95.60;;;;;;5071561;28;20231;-60
2022/07/25 05:50:33;;;;;;;7.97;6.40;;;33.70;90.30;;;;;;5071639;28;20208;-60
2022/07/25 05:53:00;;;;;;;8.63;6.22;;;34.90;83.00;;;;;;5071542;28;20213;-59
2022/07/25 05:55:28;;;;;;;6.68;5.90;;;36.10;77.90;;;;;;5071370;28;20328;-60
2022/07/25 05:57:55;;;;;;;7.55;6.20;;;37.20;72.40;;;;;;5071411;28;20212;-59
2022/07/25 06:00:22;;;;;;;5.90;5.40;;;38.20;66.80;;;;;;5071610;28;20296;-59
2022/07/25 06:02:49;;;;;;;7.35;6.07;;;38.90;64.10;;;;;;5071532;28;20228;-60
2022/07/25 06:05:16;;;;;;;9.38;5.65;;;39.70;60.30;;;;;;5071440;28;20692;-59
2022/07/25 06:07:43;;;;;;;7.50;6.15;;;40.30;57.90;;;;;;5071205;28;20201;-60
2022/07/25 06:10:10;;;;;;;8.93;6.03;;;40.90;55.90;;;;;;5061845;28;20586;-60
2022/07/25 06:12:38;;;;;;;5.85;5.35;;;41.20;55.20;;;;;;5050360;28;20255;-61
2022/07/25 06:15:06;;;;;;;7.03;6.13;;;41.50;53.90;;;;;;5050037;28;20233;-60
2022/07/25 06:17:32;;;;;;;6.32;5.40;;;41.80;53.20;;;;;;5050172;28;20205;-61
2022/07/25 06:19:59;;;;;;;6.03;5.38;;;41.90;52.20;;;;;;5050056;28;20209;-61
2022/07/25 06:22:26;;;;;;;20.55;9.32;;;42.00;51.60;;;;;;5050132;28;20696;-60
2022/07/25 06:24:52;;;;;;;12.07;5.95;;;42.20;51.30;;;;;;5050239;28;20279;-60
2022/07/25 06:27:19;;;;;;;6.03;5.43;;;42.30;51.20;;;;;;5049935;28;20254;-61
2022/07/25 06:29:47;;;;;;;6.72;5.45;;;42.30;50.30;;;;;;5050419;28;20209;-61
2022/07/25 06:32:14;;;;;;;7.18;5.70;;;42.10;50.30;;;;;;5050503;28;20209;-59
2022/07/25 06:34:40;;;;;;;7.47;5.45;;;42.00;50.40;;;;;;5050140;28;20283;-60
2022/07/25 06:37:07;;;;;;;5.78;5.28;;;42.20;50.00;;;;;;5050314;28;20209;-60
2022/07/25 06:39:35;;;;;;;8.68;5.85;;;42.60;49.30;;;;;;5049917;28;20205;-60
2022/07/25 06:42:02;;;;;;;29.75;7.78;;;43.00;48.40;;;;;;5050344;28;20225;-61
2022/07/25 06:44:32;;;;;;;6.13;5.53;;;42.90;48.50;;;;;;5050257;28;20633;-60
2022/07/25 06:47:00;;;;;;;6.30;5.63;;;43.10;48.10;;;;;;5053242;28;20610;-61
2022/07/25 06:49:27;;;;;;;5.80;5.20;;;43.50;47.70;;;;;;5053830;28;20211;-61
2022/07/25 06:51:54;;;;;;;7.05;5.57;;;44.10;46.70;;;;;;5053793;28;20668;-61
2022/07/25 06:54:20;;;;;;;6.25;5.65;;;44.60;45.60;;;;;;5053788;28;20237;-60
2022/07/25 06:56:47;;;;;;;8.95;5.20;;;44.90;44.50;;;;;;5053576;28;20205;-60
2022/07/25 06:59:14;;;;;;;5.95;5.30;;;45.30;44.00;;;;;;5053859;28;20213;-60
2022/07/25 07:01:40;;;;;;;8.90;5.05;;;45.70;43.50;;;;;;5054214;28;20263;-60
2022/07/25 07:04:08;;;;;;;6.72;5.43;;;46.10;43.00;;;;;;5053162;28;20205;-61
2022/07/25 07:06:37;;;;;;;8.80;5.15;;;46.40;42.10;;;;;;5053671;28;20216;-63
2022/07/25 07:09:04;;;;;;;7.43;4.90;;;46.80;42.00;;;;;;5053848;28;20236;-62
2022/07/25 07:11:33;;;;;;;5.20;4.80;;;47.50;41.30;;;;;;5053762;28;20217;-64
2022/07/25 07:13:59;;;;;;;5.25;4.82;;;48.30;40.30;;;;;;5053732;28;20209;-63
2022/07/25 07:16:26;;;;;;;7.22;4.78;;;49.10;39.30;;;;;;5053352;28;20204;-63
2022/07/25 07:18:53;;;;;;;6.30;5.70;;;49.60;38.20;;;;;;5053451;28;20209;-66
2022/07/25 07:21:21;;;;;;;5.22;4.82;;;50.00;37.70;;;;;;5056183;28;20220;-63
2022/07/25 07:23:48;;;;;;;5.00;4.50;;;50.30;36.90;;;;;;5057685;28;20582;-62
2022/07/25 07:26:15;;;;;;;5.40;4.90;;;50.40;36.80;;;;;;5059219;28;20263;-61
2022/07/25 07:28:42;;;;;;;6.57;4.82;;;50.60;36.40;;;;;;5054575;28;20260;-63
2022/07/25 07:31:09;;;;;;;7.97;4.63;;;50.60;35.40;;;;;;5054318;28;20205;-63
2022/07/25 07:33:37;;;;;;;6.60;4.72;;;50.20;34.90;;;;;;5054941;28;20650;-63
2022/07/25 07:36:04;;;;;;;5.47;4.80;;;50.00;35.50;;;;;;5054482;28;20445;-65
2022/07/25 07:38:32;;;;;;;5.32;4.38;;;49.90;35.50;;;;;;5054525;28;20446;-62
2022/07/25 07:40:59;;;;;;;5.40;4.90;;;49.70;35.00;;;;;;5054898;28;20205;-60
2022/07/25 07:43:25;;;;;;;5.13;4.22;;;50.00;35.50;;;;;;5054150;28;20229;-60
2022/07/25 07:45:52;;;;;;;4.97;4.43;;;50.10;34.80;;;;;;5054188;28;20220;-61
2022/07/25 07:48:19;;;;;;;4.63;4.22;;;50.30;35.30;;;;;;5053910;28;20703;-60
2022/07/25 07:50:46;;;;;;;4.78;4.38;;;50.60;34.40;;;;;;5054043;28;20205;-60
2022/07/25 07:53:12;;;;;;;4.88;4.47;;;50.90;33.90;;;;;;5054099;28;20208;-60
2022/07/25 07:55:42;;;;;;;7.15;4.47;;;51.20;33.60;;;;;;5053950;28;20228;-60
2022/07/25 07:58:10;;;;;;;5.38;4.90;;;51.50;33.40;;;;;;5053617;28;20292;-60
2022/07/25 08:00:38;;;;;;;5.75;4.72;;;51.80;33.00;;;;;;5053789;28;20730;-60
2022/07/25 08:03:07;;;;;;;5.38;4.68;;;51.20;33.20;;;;;;5053980;28;20233;-60
2022/07/25 08:05:36;;;;;;;6.57;4.45;;;50.90;33.50;;;;;;5053708;28;20606;-60
2022/07/25 08:08:03;;;;;;;5.45;4.32;;;50.40;33.50;;;;;;5053504;28;20201;-60
2022/07/25 08:10:33;;;;;;;5.85;4.60;;;50.20;33.90;;;;;;5053848;28;20258;-60
2022/07/25 08:13:03;;;;;;;4.88;4.47;;;50.30;33.80;;;;;;5053674;28;20579;-59
2022/07/25 08:15:30;;;;;;;6.40;4.80;;;50.50;33.80;;;;;;5053750;28;20221;-60
2022/07/25 08:17:56;;;;;;;7.47;4.78;;;50.50;34.20;;;;;;5053331;28;20209;-60
2022/07/25 08:20:23;;;;;;;4.78;4.38;;;50.40;33.50;;;;;;5053651;28;20213;-61
2022/07/25 08:22:50;;;;;;;5.15;4.75;;;49.90;33.80;;;;;;5053375;28;20221;-60
2022/07/25 08:25:20;;;;;;;5.32;4.93;;;49.50;34.30;;;;;;5053152;28;20228;-60
2022/07/25 08:27:47;;;;;;;6.72;4.60;;;49.30;34.30;;;;;;5053225;28;20223;-61
2022/07/25 08:30:16;;;;;;;5.07;4.68;;;49.30;34.60;;;;;;5053512;28;20231;-60
2022/07/25 08:32:47;;;;;;;5.65;5.00;;;49.30;34.30;;;;;;5053223;28;20213;-60
2022/07/25 08:35:14;;;;;;;6.10;4.82;;;49.60;34.20;;;;;;5053152;28;20287;-60
2022/07/25 08:37:41;;;;;;;9.55;4.90;;;50.00;33.70;;;;;;5052773;28;20205;-60
2022/07/25 08:40:09;;;;;;;5.30;4.80;;;49.80;34.10;;;;;;5053269;28;20205;-60
2022/07/25 08:42:35;;;;;;;5.25;4.72;;;48.90;34.40;;;;;;5052986;28;20235;-60
2022/07/25 08:45:06;;;;;;;8.35;4.85;;;48.60;34.50;;;;;;5053102;28;20228;-59
2022/07/25 08:47:35;;;;;;;6.72;5.10;;;48.00;35.00;;;;;;5052767;28;20653;-61
2022/07/25 08:50:04;;;;;;;6.85;5.28;;;47.10;36.00;;;;;;5052968;28;20209;-60
2022/07/25 08:52:33;;;;;;;5.57;5.00;;;45.60;37.30;;;;;;5052812;28;20626;-60
2022/07/25 08:55:00;;;;;;;5.70;5.13;;;44.20;38.40;;;;;;5052693;28;20279;-59
2022/07/25 08:57:27;;;;;;;8.77;6.00;;;42.80;40.80;;;;;;5052477;28;20669;-59
2022/07/25 08:59:57;;;;;;;11.82;6.15;;;41.50;42.20;;;;;;5052751;28;20216;-59
2022/07/25 09:02:24;;;;;;;6.82;5.75;;;40.30;43.60;;;;;;5053013;28;20689;-59
2022/07/25 09:04:52;;;;;;;6.63;6.00;;;39.20;45.20;;;;;;5052443;28;20847;-59
2022/07/25 09:07:29;;;;;;;10.10;6.22;;;38.20;46.70;;;;;;5052407;28;20685;-59
2022/07/25 09:09:56;;;;;;;7.25;5.93;;;37.50;47.80;;;;;;5052391;28;20220;-59
2022/07/25 09:12:26;;;;;;;6.90;6.00;;;36.90;48.90;;;;;;5052670;28;20212;-59
2022/07/25 09:14:53;;;;;;;9.98;6.63;;;36.50;49.50;;;;;;5052497;28;20313;-58
2022/07/25 09:17:20;;;;;;;8.35;6.22;;;36.00;49.00;;;;;;5052243;28;20271;-59
2022/07/25 09:19:53;;;;;;;6.30;5.70;;;35.60;49.50;;;;;;5054391;28;20209;-59
2022/07/25 09:22:20;;;;;;;8.48;6.57;;;35.20;50.10;;;;;;5054264;28;20232;-59
2022/07/25 09:24:47;;;;;;;7.07;6.20;;;34.90;51.00;;;;;;5054505;28;20646;-59
2022/07/25 09:27:16;;;;;;;7.25;6.20;;;34.60;51.50;;;;;;5054585;28;20209;-60
2022/07/25 09:29:43;;;;;;;13.52;9.13;;;34.30;52.00;;;;;;5054165;28;20217;-59
2022/07/25 09:32:18;;;;;;;10.38;6.97;;;34.20;52.50;;;;;;5053354;28;20561;-60
2022/07/25 09:34:46;;;;;;;9.50;6.50;;;34.00;53.10;;;;;;5053235;28;20229;-60
2022/07/25 09:37:16;;;;;;;9.90;6.88;;;33.90;53.60;;;;;;5052390;28;20205;-61
2022/07/25 09:39:45;;;;;;;7.55;6.38;;;33.70;53.10;;;;;;5052280;28;20209;-61
2022/07/25 09:42:17;;;;;;;10.50;6.90;;;33.70;53.70;;;;;;5052402;28;20217;-61
2022/07/25 09:44:44;;;;;;;6.97;6.38;;;33.60;54.60;;;;;;5052523;28;20225;-60
2022/07/25 09:47:12;;;;;;;8.40;6.90;;;33.50;54.00;;;;;;5053092;28;20202;-62
2022/07/25 09:49:42;;;;;;;9.35;6.72;;;33.40;54.50;;;;;;5052958;28;20202;-60
2022/07/25 09:52:09;;;;;;;7.32;6.28;;;33.40;54.70;;;;;;5052045;28;20209;-60
2022/07/25 09:54:38;;;;;;;8.50;6.50;;;33.40;55.10;;;;;;5079763;22;20537;-57
2022/07/25 09:57:04;;;;;;;8.85;7.20;;;33.40;54.70;;;;;;5100730;28;20196;-59
2022/07/25 09:59:33;;;;;;;7.50;6.85;;;33.50;54.80;;;;;;5113321;28;20213;-57
2022/07/25 10:02:07;;;;;;;7.35;6.65;;;33.40;55.30;;;;;;5113398;28;20203;-58
2022/07/25 10:04:44;;;;;;;16.13;7.68;;;33.50;54.40;;;;;;5116504;27;20222;-58
2022/07/25 10:07:13;;;;;;;9.35;6.57;;;33.60;54.70;;;;;;5133461;27;20210;-58
2022/07/25 10:09:44;;;;;;;6.93;6.13;;;33.70;54.70;;;;;;5102499;27;20201;-61
2022/07/25 10:12:14;;;;;;;8.95;6.95;;;33.90;54.40;;;;;;5122367;28;20210;-61
2022/07/25 10:14:41;;;;;;;12.02;7.18;;;34.10;54.70;;;;;;5133124;28;20231;-64
2022/07/25 10:17:08;;;;;;;10.55;6.95;;;34.10;54.00;;;;;;5133501;28;20210;-60
2022/07/25 10:19:39;;;;;;;12.50;6.82;;;34.10;54.40;;;;;;5110895;28;20202;-61
2022/07/25 10:22:06;;;;;;;7.57;6.70;;;34.10;53.90;;;;;;5116967;28;20241;-59
2022/07/25 10:24:34;;;;;;;9.43;6.95;;;34.00;54.20;;;;;;5117562;28;20589;-60
2022/07/25 10:27:08;;;;;;;8.15;6.88;;;34.20;53.90;;;;;;5116818;28;20325;-61
2022/07/25 10:29:36;;;;;;;8.02;6.68;;;34.30;53.60;;;;;;5116598;28;20238;-59
2022/07/25 10:32:08;;;;;;;8.02;6.82;;;34.30;54.00;;;;;;5115352;28;20710;-60
2022/07/25 10:34:36;;;;;;;7.57;6.10;;;34.50;52.30;;;;;;5114882;28;20230;-58
2022/07/25 10:37:10;;;;;;;7.55;6.15;;;34.50;52.10;;;;;;5114460;28;20733;-61
2022/07/25 10:39:38;;;;;;;7.40;6.13;;;34.60;52.20;;;;;;5116741;28;20242;-59
2022/07/25 10:42:12;;;;;;;6.63;5.95;;;34.70;51.20;;;;;;5116697;28;20211;-59
2022/07/25 10:44:43;;;;;;;7.82;6.15;;;34.80;51.50;;;;;;5116195;28;20231;-58
2022/07/25 10:47:12;;;;;;;8.35;6.55;;;34.80;51.20;;;;;;5115570;28;20292;-58
2022/07/25 10:49:40;;;;;;;7.65;6.22;;;34.90;51.50;;;;;;5116621;28;20207;-61
2022/07/25 10:52:07;;;;;;;8.43;6.03;;;34.90;51.90;;;;;;5116161;28;20239;-58
2022/07/25 10:54:35;;;;;;;7.38;5.97;;;35.10;51.40;;;;;;5115564;28;20234;-59
2022/07/25 10:57:05;;;;;;;7.20;6.10;;;35.10;50.90;;;;;;5115972;28;20248;-60
2022/07/25 10:59:35;;;;;;;6.50;5.82;;;35.10;51.10;;;;;;5115491;28;20299;-60
2022/07/25 11:02:03;;;;;;;6.93;5.95;;;35.00;50.30;;;;;;5115918;28;20207;-60
2022/07/25 11:04:30;;;;;;;7.95;5.88;;;34.90;50.10;;;;;;5115667;28;20230;-60
2022/07/25 11:06:58;;;;;;;11.15;6.05;;;34.90;50.10;;;;;;5115712;28;20211;-61
2022/07/25 11:09:26;;;;;;;7.85;6.10;;;34.90;50.70;;;;;;5117010;28;20607;-61
2022/07/25 11:11:54;;;;;;;6.00;5.50;;;34.90;50.80;;;;;;5116921;28;20205;-61
2022/07/25 11:14:23;;;;;;;6.78;5.70;;;34.90;50.60;;;;;;5115128;28;20214;-59
2022/07/25 11:16:54;;;;;;;13.63;5.50;;;35.00;50.70;;;;;;5115519;28;20270;-60
2022/07/25 11:19:24;;;;;;;7.65;5.55;;;35.20;50.50;;;;;;5115545;28;20206;-61
2022/07/25 11:21:53;;;;;;;10.90;6.10;;;35.40;50.60;;;;;;5116170;28;20235;-60
2022/07/25 11:24:20;;;;;;;9.45;6.18;;;35.60;49.60;;;;;;5117016;28;20654;-60
2022/07/25 11:26:49;;;;;;;6.22;5.70;;;35.60;49.80;;;;;;5116468;28;20206;-60
2022/07/25 11:29:25;;;;;;;5.93;5.32;;;35.80;49.50;;;;;;5115738;28;20261;-60
2022/07/25 11:31:55;;;;;;;6.05;5.45;;;35.90;49.30;;;;;;5114994;28;20207;-59
2022/07/25 11:34:25;;;;;;;5.63;5.13;;;36.00;48.00;;;;;;5116375;28;20238;-60
2022/07/25 11:36:55;;;;;;;7.57;5.38;;;36.10;48.40;;;;;;5115950;28;20210;-59
2022/07/25 11:39:24;;;;;;;7.13;5.13;;;36.10;47.60;;;;;;5115376;28;20264;-60
2022/07/25 11:41:59;;;;;;;6.28;5.68;;;36.10;48.20;;;;;;5117371;28;20214;-59
2022/07/25 11:44:38;;;;;;;9.25;6.20;;;36.20;47.50;;;;;;5117655;28;20233;-62
2022/07/25 11:47:08;;;;;;;8.65;5.65;;;36.20;48.50;;;;;;5117848;28;20210;-61
2022/07/25 11:49:44;;;;;;;6.32;5.72;;;36.20;47.70;;;;;;5119427;28;20219;-61
2022/07/25 11:52:19;;;;;;;5.60;5.00;;;36.10;47.60;;;;;;5120037;28;20207;-60
2022/07/25 11:54:54;;;;;;;12.77;5.35;;;36.30;47.30;;;;;;5118539;28;20231;-62
2022/07/25 11:57:22;;;;;;;5.75;4.95;;;36.20;47.00;;;;;;5118820;28;20211;-58
2022/07/25 11:59:49;;;;;;;7.22;5.20;;;36.00;47.60;;;;;;5119360;28;20204;-58
2022/07/25 12:02:26;;;;;;;5.75;5.25;;;35.90;47.60;;;;;;5117253;28;20203;-58
2022/07/25 12:04:57;;;;;;;5.88;5.30;;;35.90;47.60;;;;;;5117629;28;20227;-58
2022/07/25 12:07:38;;;;;;;6.07;5.13;;;36.00;48.20;;;;;;5117468;28;20211;-58
2022/07/25 12:10:06;;;;;;;5.32;4.82;;;36.20;48.50;;;;;;5114974;28;20207;-58
2022/07/25 12:12:42;;;;;;;5.55;4.93;;;36.30;47.30;;;;;;5115320;28;20617;-58
2022/07/25 12:15:10;;;;;;;6.60;4.70;;;36.50;46.90;;;;;;5114706;28;20223;-58
2022/07/25 12:17:38;;;;;;;5.47;4.90;;;36.80;47.00;;;;;;5115977;28;20207;-58
2022/07/25 12:20:11;;;;;;;5.63;5.07;;;37.00;46.50;;;;;;5115316;28;20210;-58
2022/07/25 12:22:37;;;;;;;6.78;5.00;;;37.30;45.90;;;;;;5115605;28;20204;-58
2022/07/25 12:25:05;;;;;;;6.35;4.65;;;37.50;46.00;;;;;;5114879;28;20232;-59
2022/07/25 12:27:32;;;;;;;5.63;4.93;;;37.80;45.20;;;;;;5115347;28;20237;-63
2022/07/25 12:29:59;;;;;;;5.78;4.88;;;38.10;44.20;;;;;;5116091;28;20307;-61
2022/07/25 12:32:25;;;;;;;5.13;4.63;;;38.00;45.10;;;;;;5115269;28;20207;-58
2022/07/25 12:34:54;;;;;;;8.30;4.88;;;38.10;45.40;;;;;;5115568;28;20232;-59
2022/07/25 12:37:21;;;;;;;6.07;4.95;;;38.10;44.20;;;;;;5114859;28;20713;-58
2022/07/25 12:39:48;;;;;;;8.77;4.68;;;37.90;44.10;;;;;;5114884;28;20290;-59
2022/07/25 12:42:15;;;;;;;8.40;4.85;;;38.00;44.70;;;;;;5114165;28;20211;-59
2022/07/25 12:44:42;;;;;;;5.57;4.47;;;38.10;44.80;;;;;;5113745;28;20232;-58
2022/07/25 12:47:09;;;;;;;5.80;5.00;;;38.20;43.80;;;;;;5114230;28;20204;-58